Time;durP1;ratioP1;P1;durP2;ratioP2;P2;SDS_P1;SDS_P2;PMS_P1;PMS_P2;Temp;Humidity;BMP_temperature;BMP_pressure;BME280_temperature;BME280_humidity;BME280_pressure;Samples;Min_cycle;Max_cycle;Signal;HPM_P1;HPM_P2
2023/03/02 00:00:35;;;;;;;1.50;1.40;;;;;;;;;;5002186;28;20517;-72
2023/03/02 00:03:08;;;;;;;1.13;1.02;;;;;;;;;;5006671;28;20226;-72
2023/03/02 00:05:41;;;;;;;0.90;0.80;;;;;;;;;;5021840;28;20229;-71
2023/03/02 00:08:10;;;;;;;0.98;0.88;;;;;;;;;;5021482;28;20235;-73
2023/03/02 00:10:40;;;;;;;1.55;1.45;;;;;;;;;;5021705;28;20263;-71
2023/03/02 00:13:10;;;;;;;1.10;1.00;;;;;;;;;;5020673;28;20256;-72
2023/03/02 00:15:47;;;;;;;1.55;1.45;;;;;;;;;;5020148;28;20253;-71
2023/03/02 00:18:20;;;;;;;1.50;1.40;;;;;;;;;;5021523;28;20240;-71
2023/03/02 00:20:56;;;;;;;1.15;1.05;;;;;;;;;;5022016;28;20324;-71
2023/03/02 00:23:38;;;;;;;1.35;1.25;;;;;;;;;;5022195;28;20237;-71
2023/03/02 00:26:06;;;;;;;1.13;1.02;;;;;;;;;;5024917;28;20217;-72
2023/03/02 00:28:35;;;;;;;0.93;0.82;;;;;;;;;;5020797;28;20276;-72
2023/03/02 00:31:08;;;;;;;1.05;0.95;;;;;;;;;;5025427;28;20252;-72
2023/03/02 00:33:51;;;;;;;1.17;1.08;;;;;;;;;;5023165;28;20268;-72
2023/03/02 00:36:24;;;;;;;1.00;0.90;;;;;;;;;;5019541;28;20584;-73
2023/03/02 00:38:56;;;;;;;1.00;0.90;;;;;;;;;;5019743;28;20230;-73
2023/03/02 00:41:26;;;;;;;1.10;1.00;;;;;;;;;;5019244;28;20223;-72
2023/03/02 00:43:54;;;;;;;1.17;1.08;;;;;;;;;;5015030;28;20578;-73
2023/03/02 00:46:23;;;;;;;1.50;1.40;;;;;;;;;;5020271;28;20567;-72
2023/03/02 00:48:52;;;;;;;1.30;1.20;;;;;;;;;;5021041;28;20563;-72
2023/03/02 00:51:26;;;;;;;1.13;1.02;;;;;;;;;;5017541;28;20236;-71
2023/03/02 00:53:54;;;;;;;1.38;1.27;;;;;;;;;;5018625;28;20606;-71
2023/03/02 00:56:29;;;;;;;1.25;1.15;;;;;;;;;;5024724;28;20571;-72
2023/03/02 00:59:09;;;;;;;1.30;1.20;;;;;;;;;;5018915;28;20569;-72
2023/03/02 01:01:42;;;;;;;1.33;1.23;;;;;;;;;;5035791;28;20225;-71
2023/03/02 01:04:15;;;;;;;0.93;0.82;;;;;;;;;;5039894;28;20309;-72
2023/03/02 01:06:46;;;;;;;1.17;1.08;;;;;;;;;;5026190;28;20620;-72
2023/03/02 01:09:19;;;;;;;1.00;0.90;;;;;;;;;;5019405;28;20230;-71
2023/03/02 01:11:51;;;;;;;0.95;0.85;;;;;;;;;;4999311;28;20688;-72
2023/03/02 01:14:20;;;;;;;1.00;0.90;;;;;;;;;;5005849;28;20222;-72
2023/03/02 01:16:48;;;;;;;1.00;0.90;;;;;;;;;;5039953;28;20503;-72
2023/03/02 01:19:21;;;;;;;0.90;0.80;;;;;;;;;;5039689;28;20229;-72
2023/03/02 01:21:54;;;;;;;0.90;0.80;;;;;;;;;;5039763;28;20319;-72
2023/03/02 01:24:23;;;;;;;0.80;0.80;;;;;;;;;;5037442;28;20257;-72
2023/03/02 01:26:52;;;;;;;0.80;0.80;;;;;;;;;;5020233;28;20231;-72
2023/03/02 01:29:40;;;;;;;1.42;1.33;;;;;;;;;;5019708;28;20275;-72
2023/03/02 01:32:09;;;;;;;1.45;1.35;;;;;;;;;;5019633;28;20244;-72
2023/03/02 01:34:38;;;;;;;1.70;1.60;;;;;;;;;;5020107;28;20231;-72
2023/03/02 01:37:14;;;;;;;1.38;1.27;;;;;;;;;;5019199;28;20230;-72
2023/03/02 01:39:45;;;;;;;1.55;1.45;;;;;;;;;;5020491;28;20604;-72
2023/03/02 01:42:23;;;;;;;0.98;0.88;;;;;;;;;;5020718;28;20239;-72
2023/03/02 01:44:55;;;;;;;0.85;0.82;;;;;;;;;;5039673;28;20226;-72
2023/03/02 01:47:25;;;;;;;0.98;0.95;;;;;;;;;;5038434;28;20617;-72
2023/03/02 01:49:56;;;;;;;1.08;1.00;;;;;;;;;;5038155;28;20229;-72
2023/03/02 01:52:26;;;;;;;0.77;0.70;;;;;;;;;;5030585;28;20655;-72
2023/03/02 01:54:57;;;;;;;0.93;0.90;;;;;;;;;;5016961;28;20255;-72
2023/03/02 01:57:42;;;;;;;1.13;1.08;;;;;;;;;;5018744;28;20303;-71
2023/03/02 02:00:15;;;;;;;1.98;1.88;;;;;;;;;;5017763;28;20313;-71
2023/03/02 02:02:43;;;;;;;0.80;0.80;;;;;;;;;;5019477;28;20230;-71
2023/03/02 02:05:16;;;;;;;1.38;1.27;;;;;;;;;;5018207;28;20228;-71
2023/03/02 02:07:46;;;;;;;1.52;1.42;;;;;;;;;;5018482;28;20291;-70
2023/03/02 02:10:14;;;;;;;0.80;0.70;;;;;;;;;;5019887;28;20234;-73
2023/03/02 02:12:42;;;;;;;0.65;0.57;;;;;;;;;;5019132;28;20225;-71
2023/03/02 02:15:10;;;;;;;1.20;1.10;;;;;;;;;;5019112;28;20391;-72
2023/03/02 02:17:41;;;;;;;1.25;1.15;;;;;;;;;;5023566;28;20242;-73
2023/03/02 02:20:22;;;;;;;1.02;0.98;;;;;;;;;;5027513;28;20224;-72
2023/03/02 02:22:56;;;;;;;1.08;1.05;;;;;;;;;;5017487;28;20293;-73
2023/03/02 02:25:38;;;;;;;1.20;1.10;;;;;;;;;;5019110;28;20298;-71
2023/03/02 02:28:18;;;;;;;1.13;1.05;;;;;;;;;;5021883;28;20554;-71
2023/03/02 02:31:04;;;;;;;0.80;0.80;;;;;;;;;;5018897;28;20249;-71
2023/03/02 02:36:44;;;;;;;1.10;1.00;;;;;;;;;;5014121;28;20245;-73
2023/03/02 02:39:29;;;;;;;1.35;1.25;;;;;;;;;;4982916;28;20238;-71
2023/03/02 02:42:06;;;;;;;0.93;0.93;;;;;;;;;;5007491;28;20220;-72
2023/03/02 02:44:50;;;;;;;1.27;1.17;;;;;;;;;;5023303;28;20217;-71
2023/03/02 02:47:27;;;;;;;1.30;1.20;;;;;;;;;;5036173;28;20232;-72
2023/03/02 02:49:57;;;;;;;1.10;1.02;;;;;;;;;;5026875;28;20286;-72
2023/03/02 02:52:26;;;;;;;1.10;1.00;;;;;;;;;;5018144;28;20246;-72
2023/03/02 02:54:55;;;;;;;1.52;1.42;;;;;;;;;;5018001;28;20230;-72
2023/03/02 02:57:26;;;;;;;0.90;0.80;;;;;;;;;;5018550;28;20226;-72
2023/03/02 02:59:56;;;;;;;0.88;0.88;;;;;;;;;;5017539;28;20236;-71
2023/03/02 03:02:27;;;;;;;0.80;0.80;;;;;;;;;;5027530;28;20218;-72
2023/03/02 03:05:02;;;;;;;1.08;1.00;;;;;;;;;;5032986;28;20233;-73
2023/03/02 03:07:31;;;;;;;1.10;1.10;;;;;;;;;;5026767;28;20225;-72
2023/03/02 03:10:03;;;;;;;0.70;0.70;;;;;;;;;;5020734;28;20227;-72
2023/03/02 03:12:41;;;;;;;0.82;0.82;;;;;;;;;;5017490;28;20231;-72
2023/03/02 03:15:09;;;;;;;0.70;0.70;;;;;;;;;;5019166;28;20240;-73
2023/03/02 03:17:39;;;;;;;0.73;0.73;;;;;;;;;;5018218;28;20240;-72
2023/03/02 03:20:15;;;;;;;0.70;0.70;;;;;;;;;;5018998;28;20232;-73
2023/03/02 03:22:42;;;;;;;1.25;1.15;;;;;;;;;;5021000;28;20548;-72
2023/03/02 03:25:14;;;;;;;0.70;0.70;;;;;;;;;;5021967;28;20228;-72
2023/03/02 03:27:43;;;;;;;0.85;0.85;;;;;;;;;;5020994;28;20568;-72
2023/03/02 03:30:14;;;;;;;0.90;0.90;;;;;;;;;;5020716;28;20245;-71
2023/03/02 03:32:43;;;;;;;0.60;0.60;;;;;;;;;;5116282;28;20264;-73
2023/03/02 03:35:20;;;;;;;1.13;1.05;;;;;;;;;;5041834;28;20233;-72
2023/03/02 03:37:50;;;;;;;0.57;0.57;;;;;;;;;;5019723;28;20559;-71
2023/03/02 03:40:18;;;;;;;0.55;0.50;;;;;;;;;;5020510;28;20249;-72
2023/03/02 03:42:45;;;;;;;0.82;0.75;;;;;;;;;;5020137;28;20232;-73
2023/03/02 03:45:13;;;;;;;0.95;0.90;;;;;;;;;;5000420;28;20256;-72
2023/03/02 03:47:41;;;;;;;0.80;0.80;;;;;;;;;;5000813;28;20228;-73
2023/03/02 03:50:11;;;;;;;0.60;0.60;;;;;;;;;;5000409;28;20255;-73
2023/03/02 03:52:38;;;;;;;0.60;0.60;;;;;;;;;;5000931;28;20228;-73
2023/03/02 03:55:07;;;;;;;1.55;1.45;;;;;;;;;;4999467;28;20662;-73
2023/03/02 03:57:34;;;;;;;1.17;1.08;;;;;;;;;;4999238;28;20242;-73
2023/03/02 04:00:04;;;;;;;0.80;0.60;;;;;;;;;;5039526;28;20607;-73
2023/03/02 04:02:32;;;;;;;1.15;1.08;;;;;;;;;;5072085;28;20254;-72
2023/03/02 04:05:07;;;;;;;1.20;1.10;;;;;;;;;;5018898;28;20479;-73
2023/03/02 04:07:37;;;;;;;0.68;0.68;;;;;;;;;;5018868;28;20609;-71
2023/03/02 04:10:06;;;;;;;0.82;0.82;;;;;;;;;;5039145;28;20499;-73
2023/03/02 04:12:34;;;;;;;0.88;0.88;;;;;;;;;;5039354;28;20295;-72
2023/03/02 04:15:02;;;;;;;0.80;0.80;;;;;;;;;;5029257;28;20244;-72
2023/03/02 04:17:33;;;;;;;1.08;1.08;;;;;;;;;;5019990;28;20503;-71
2023/03/02 04:20:00;;;;;;;0.80;0.80;;;;;;;;;;5020334;28;20549;-71
2023/03/02 04:22:29;;;;;;;1.52;1.42;;;;;;;;;;5020635;28;20261;-71
2023/03/02 04:24:58;;;;;;;0.98;0.98;;;;;;;;;;5019645;28;20292;-72
2023/03/02 04:27:25;;;;;;;0.60;0.60;;;;;;;;;;5018964;28;20598;-72
2023/03/02 04:29:53;;;;;;;1.38;1.27;;;;;;;;;;5019128;28;20241;-73
2023/03/02 04:32:21;;;;;;;1.13;1.02;;;;;;;;;;5018317;28;20243;-71
2023/03/02 04:34:48;;;;;;;1.70;1.60;;;;;;;;;;5018643;28;20227;-72
2023/03/02 04:37:16;;;;;;;0.90;0.80;;;;;;;;;;5018197;28;20248;-71
2023/03/02 04:39:50;;;;;;;1.40;1.30;;;;;;;;;;5011609;28;20225;-72
2023/03/02 04:42:20;;;;;;;1.33;1.23;;;;;;;;;;5035307;28;20223;-73
2023/03/02 04:44:49;;;;;;;1.40;1.30;;;;;;;;;;5018701;28;20514;-72
2023/03/02 04:47:20;;;;;;;1.10;1.00;;;;;;;;;;5010393;28;20243;-72
2023/03/02 04:49:53;;;;;;;1.00;0.90;;;;;;;;;;5007969;28;20222;-72
2023/03/02 04:52:25;;;;;;;1.42;1.33;;;;;;;;;;5021258;28;20241;-72
2023/03/02 04:54:53;;;;;;;1.35;1.25;;;;;;;;;;5018949;28;20245;-72
2023/03/02 04:57:22;;;;;;;1.10;0.98;;;;;;;;;;5020933;28;20271;-72
2023/03/02 04:59:50;;;;;;;1.02;0.90;;;;;;;;;;5018076;28;20632;-72
2023/03/02 05:02:31;;;;;;;1.67;1.58;;;;;;;;;;5019281;28;20230;-72
2023/03/02 05:04:59;;;;;;;1.30;1.20;;;;;;;;;;5018429;28;20299;-72
2023/03/02 05:07:26;;;;;;;1.23;1.13;;;;;;;;;;5018512;28;20233;-72
2023/03/02 05:09:54;;;;;;;1.00;0.90;;;;;;;;;;5020128;28;20231;-72
2023/03/02 05:12:25;;;;;;;1.67;1.58;;;;;;;;;;5018510;28;20225;-72
2023/03/02 05:14:55;;;;;;;1.50;1.40;;;;;;;;;;5020203;28;20281;-72
2023/03/02 05:17:23;;;;;;;1.23;1.13;;;;;;;;;;5017513;28;20244;-71
2023/03/02 05:19:51;;;;;;;1.23;1.13;;;;;;;;;;5021872;28;20230;-71
2023/03/02 05:22:18;;;;;;;0.80;0.70;;;;;;;;;;5037086;28;20230;-72
2023/03/02 05:24:46;;;;;;;1.13;1.02;;;;;;;;;;5038965;28;20351;-72
2023/03/02 05:27:14;;;;;;;1.30;1.20;;;;;;;;;;5037838;28;20313;-71
2023/03/02 05:29:43;;;;;;;0.88;0.85;;;;;;;;;;5036563;28;20488;-72
2023/03/02 05:32:11;;;;;;;0.60;0.60;;;;;;;;;;5020963;28;20637;-73
2023/03/02 05:34:44;;;;;;;1.38;1.27;;;;;;;;;;5018240;28;20313;-72
2023/03/02 05:37:11;;;;;;;0.75;0.75;;;;;;;;;;5018343;28;20246;-73
2023/03/02 05:39:39;;;;;;;0.60;0.60;;;;;;;;;;5020149;28;20612;-73
2023/03/02 05:42:06;;;;;;;0.60;0.60;;;;;;;;;;5029289;28;20285;-72
2023/03/02 05:44:34;;;;;;;1.52;1.42;;;;;;;;;;5021210;28;20239;-72
2023/03/02 05:47:04;;;;;;;0.80;0.80;;;;;;;;;;5019048;28;20228;-71
2023/03/02 05:49:31;;;;;;;1.20;1.10;;;;;;;;;;5018404;28;20216;-72
2023/03/02 05:52:02;;;;;;;0.70;0.70;;;;;;;;;;5019442;28;20309;-71
2023/03/02 05:54:30;;;;;;;1.58;1.48;;;;;;;;;;5018793;28;20564;-72
2023/03/02 05:56:58;;;;;;;1.23;1.13;;;;;;;;;;5017109;28;20246;-72
2023/03/02 05:59:35;;;;;;;1.45;1.33;;;;;;;;;;5018828;28;20237;-72
2023/03/02 06:02:04;;;;;;;1.38;1.27;;;;;;;;;;5017436;28;20254;-72
2023/03/02 06:04:32;;;;;;;0.80;0.70;;;;;;;;;;5027322;28;20246;-73
2023/03/02 06:07:00;;;;;;;1.35;1.25;;;;;;;;;;5109855;28;20221;-71
2023/03/02 06:09:28;;;;;;;1.00;0.90;;;;;;;;;;5019065;28;20230;-73
2023/03/02 06:11:55;;;;;;;0.95;0.85;;;;;;;;;;5018660;28;20230;-72
2023/03/02 06:14:23;;;;;;;1.85;1.75;;;;;;;;;;5020492;28;20228;-72
2023/03/02 06:16:51;;;;;;;1.40;1.30;;;;;;;;;;5015592;28;20256;-72
2023/03/02 06:19:20;;;;;;;1.35;1.25;;;;;;;;;;5017615;28;20226;-72
2023/03/02 06:21:48;;;;;;;2.33;2.22;;;;;;;;;;5015466;28;20235;-73
2023/03/02 06:24:16;;;;;;;0.80;0.70;;;;;;;;;;5016513;28;20235;-73
2023/03/02 06:26:50;;;;;;;1.67;1.58;;;;;;;;;;5016953;28;20228;-73
2023/03/02 06:29:18;;;;;;;1.63;1.52;;;;;;;;;;5019435;28;20217;-73
2023/03/02 06:31:45;;;;;;;0.80;0.70;;;;;;;;;;5036926;28;20221;-73
2023/03/02 06:34:17;;;;;;;2.15;2.05;;;;;;;;;;5035618;28;20237;-72
2023/03/02 06:36:46;;;;;;;1.23;1.13;;;;;;;;;;5035990;28;20295;-72
2023/03/02 06:39:15;;;;;;;2.17;2.08;;;;;;;;;;4997061;28;20285;-71
2023/03/02 06:41:44;;;;;;;1.60;1.50;;;;;;;;;;5016618;28;20245;-72
2023/03/02 06:44:11;;;;;;;0.80;0.80;;;;;;;;;;5015961;28;20231;-72
2023/03/02 06:46:41;;;;;;;1.15;1.05;;;;;;;;;;5017449;28;20236;-72
2023/03/02 06:49:09;;;;;;;1.73;1.63;;;;;;;;;;5007911;28;20221;-71
2023/03/02 06:51:37;;;;;;;1.15;1.05;;;;;;;;;;5074482;28;20228;-72
2023/03/02 06:54:09;;;;;;;1.42;1.33;;;;;;;;;;5117529;28;20226;-73
2023/03/02 06:56:41;;;;;;;1.70;1.60;;;;;;;;;;5119367;28;20241;-71
2023/03/02 06:59:11;;;;;;;1.88;1.77;;;;;;;;;;4996290;28;20227;-72
2023/03/02 07:01:39;;;;;;;1.50;1.40;;;;;;;;;;5019852;28;20239;-72
2023/03/02 07:04:07;;;;;;;1.60;1.50;;;;;;;;;;5015760;28;20228;-72
2023/03/02 07:06:34;;;;;;;1.75;1.65;;;;;;;;;;5015419;28;20230;-72
2023/03/02 07:09:02;;;;;;;1.50;1.40;;;;;;;;;;5016528;28;20624;-73
2023/03/02 07:11:40;;;;;;;2.20;2.10;;;;;;;;;;5013118;28;20233;-71
2023/03/02 07:14:16;;;;;;;1.30;1.20;;;;;;;;;;5015511;28;20241;-71
2023/03/02 07:16:47;;;;;;;1.13;1.02;;;;;;;;;;5014465;28;20356;-72
2023/03/02 07:19:15;;;;;;;1.08;1.00;;;;;;;;;;5015778;28;20610;-72
2023/03/02 07:21:42;;;;;;;1.92;1.83;;;;;;;;;;5015139;28;20240;-73
2023/03/02 07:24:11;;;;;;;1.42;1.33;;;;;;;;;;5014706;28;20230;-73
2023/03/02 07:26:48;;;;;;;1.88;1.77;;;;;;;;;;5017222;28;20541;-72
2023/03/02 07:29:20;;;;;;;1.00;1.00;;;;;;;;;;5016189;28;20309;-73
2023/03/02 07:31:54;;;;;;;1.60;1.50;;;;;;;;;;5011491;28;20262;-72
2023/03/02 07:34:22;;;;;;;1.70;1.60;;;;;;;;;;5014159;28;20284;-73
2023/03/02 07:36:50;;;;;;;2.45;2.35;;;;;;;;;;5014582;28;20582;-73
2023/03/02 07:39:18;;;;;;;1.42;1.33;;;;;;;;;;5014474;28;20663;-72
2023/03/02 07:41:48;;;;;;;1.90;1.80;;;;;;;;;;5017254;28;20244;-71
2023/03/02 07:44:16;;;;;;;1.50;1.40;;;;;;;;;;5015332;28;20243;-71
2023/03/02 07:46:44;;;;;;;1.38;1.27;;;;;;;;;;5016767;28;20401;-72
2023/03/02 07:49:16;;;;;;;1.27;1.17;;;;;;;;;;5015145;28;20237;-72
2023/03/02 07:54:49;;;;;;;2.90;2.75;;;;;;;;;;5032538;28;20219;-71
2023/03/02 07:57:19;;;;;;;1.45;1.35;;;;;;;;;;5017088;28;20492;-71
2023/03/02 07:59:47;;;;;;;4.57;4.35;;;;;;;;;;5012567;28;20227;-72
2023/03/02 08:02:19;;;;;;;1.58;1.48;;;;;;;;;;4997015;28;20233;-71
2023/03/02 08:04:51;;;;;;;2.65;2.55;;;;;;;;;;4996165;28;20274;-72
2023/03/02 08:07:18;;;;;;;2.05;1.95;;;;;;;;;;4999500;28;20258;-72
2023/03/02 08:09:46;;;;;;;1.35;1.27;;;;;;;;;;5000029;28;20233;-72
2023/03/02 08:12:15;;;;;;;3.40;3.20;;;;;;;;;;5009003;28;20218;-72
2023/03/02 08:14:45;;;;;;;1.38;1.27;;;;;;;;;;5019703;28;20233;-72
2023/03/02 08:17:12;;;;;;;2.33;2.22;;;;;;;;;;5020140;28;20384;-71
2023/03/02 08:19:40;;;;;;;2.03;1.92;;;;;;;;;;5020399;28;20238;-71
2023/03/02 08:22:08;;;;;;;2.03;1.92;;;;;;;;;;5018658;28;20649;-72
2023/03/02 08:24:40;;;;;;;1.95;1.85;;;;;;;;;;5020803;28;20307;-70
2023/03/02 08:27:14;;;;;;;0.90;0.90;;;;;;;;;;4998744;28;20225;-71
2023/03/02 08:29:44;;;;;;;0.98;0.98;;;;;;;;;;5001259;28;20295;-72
2023/03/02 08:32:17;;;;;;;2.42;2.33;;;;;;;;;;5000392;28;20230;-71
2023/03/02 08:34:50;;;;;;;5.38;5.07;;;;;;;;;;5001445;28;20237;-72
2023/03/02 08:37:18;;;;;;;2.30;2.20;;;;;;;;;;5020901;28;20333;-71
2023/03/02 08:39:50;;;;;;;1.73;1.63;;;;;;;;;;5016232;28;20227;-72
2023/03/02 08:42:29;;;;;;;3.38;3.17;;;;;;;;;;5018822;28;20249;-72
2023/03/02 08:45:00;;;;;;;4.10;3.88;;;;;;;;;;5019624;28;20253;-71
2023/03/02 08:47:31;;;;;;;1.67;1.58;;;;;;;;;;5019148;28;20246;-72
2023/03/02 08:50:04;;;;;;;2.75;2.65;;;;;;;;;;5019778;28;20223;-72
2023/03/02 08:52:37;;;;;;;2.75;2.65;;;;;;;;;;5019559;28;20236;-71
2023/03/02 08:55:08;;;;;;;1.83;1.73;;;;;;;;;;5019399;28;20236;-72
2023/03/02 08:57:36;;;;;;;1.58;1.48;;;;;;;;;;5015889;28;20331;-71
2023/03/02 09:00:08;;;;;;;2.20;2.10;;;;;;;;;;5019250;28;20234;-72
2023/03/02 09:02:37;;;;;;;3.95;3.75;;;;;;;;;;5015211;28;20232;-71
2023/03/02 09:05:05;;;;;;;2.13;2.03;;;;;;;;;;5016366;28;20228;-71
2023/03/02 09:07:33;;;;;;;2.33;2.22;;;;;;;;;;5024057;28;20599;-70
2023/03/02 09:10:01;;;;;;;3.20;3.00;;;;;;;;;;5025509;28;20233;-72
2023/03/02 09:12:32;;;;;;;3.20;3.00;;;;;;;;;;5018372;28;20621;-72
2023/03/02 09:15:04;;;;;;;1.73;1.63;;;;;;;;;;5017354;28;20237;-72
2023/03/02 09:17:36;;;;;;;1.83;1.73;;;;;;;;;;5014510;28;20301;-71
2023/03/02 09:20:08;;;;;;;2.22;2.03;;;;;;;;;;5017141;28;20264;-72
2023/03/02 09:22:47;;;;;;;2.95;2.75;;;;;;;;;;5014088;28;20240;-71
2023/03/02 09:25:18;;;;;;;3.80;3.60;;;;;;;;;;5008343;28;20213;-72
2023/03/02 09:27:56;;;;;;;2.00;1.90;;;;;;;;;;5020872;28;20238;-72
2023/03/02 09:30:31;;;;;;;2.00;1.90;;;;;;;;;;5052628;28;20281;-71
2023/03/02 09:33:00;;;;;;;1.20;1.10;;;;;;;;;;5013177;28;20248;-71
2023/03/02 09:35:54;;;;;;;1.67;1.58;;;;;;;;;;5013266;28;20736;-72
2023/03/02 09:38:32;;;;;;;3.67;3.47;;;;;;;;;;5015066;28;20510;-70
2023/03/02 09:41:21;;;;;;;2.03;1.92;;;;;;;;;;5001018;28;20224;-71
2023/03/02 09:43:53;;;;;;;3.80;3.60;;;;;;;;;;5012162;28;20226;-72
2023/03/02 09:46:35;;;;;;;2.45;2.35;;;;;;;;;;5015267;28;20227;-72
2023/03/02 09:49:16;;;;;;;2.50;2.40;;;;;;;;;;5012025;28;20251;-72
2023/03/02 09:51:51;;;;;;;1.92;1.83;;;;;;;;;;5019330;28;20218;-72
2023/03/02 09:54:19;;;;;;;2.90;2.70;;;;;;;;;;5016382;28;20226;-72
2023/03/02 09:56:51;;;;;;;2.10;2.00;;;;;;;;;;5016348;28;20229;-71
2023/03/02 09:59:22;;;;;;;4.05;3.75;;;;;;;;;;5016170;28;20242;-73
2023/03/02 10:01:54;;;;;;;2.15;2.05;;;;;;;;;;5015185;28;20228;-72
2023/03/02 10:07:30;;;;;;;1.85;1.75;;;;;;;;;;5010707;28;20635;-72
2023/03/02 10:10:06;;;;;;;2.58;2.38;;;;;;;;;;5004932;28;20230;-72
2023/03/02 10:13:05;;;;;;;1.88;1.77;;;;;;;;;;5019577;28;20227;-72
2023/03/02 10:15:37;;;;;;;1.98;1.88;;;;;;;;;;5013667;28;20230;-71
2023/03/02 10:18:26;;;;;;;1.75;1.65;;;;;;;;;;5012657;28;20244;-72
2023/03/02 10:20:56;;;;;;;2.30;2.20;;;;;;;;;;5005937;28;20254;-71
2023/03/02 10:23:28;;;;;;;1.77;1.67;;;;;;;;;;5017199;28;20219;-71
2023/03/02 10:26:18;;;;;;;1.52;1.42;;;;;;;;;;5014909;28;20225;-71
2023/03/02 10:28:50;;;;;;;4.00;3.80;;;;;;;;;;5008283;28;20230;-71
2023/03/02 10:31:26;;;;;;;2.55;2.45;;;;;;;;;;5012621;28;20745;-71
2023/03/02 10:33:54;;;;;;;1.98;1.88;;;;;;;;;;5012494;28;20276;-72
2023/03/02 10:36:30;;;;;;;2.38;2.25;;;;;;;;;;5013135;28;20218;-71
2023/03/02 10:39:00;;;;;;;1.95;1.85;;;;;;;;;;5010230;28;20240;-71
2023/03/02 10:41:32;;;;;;;1.90;1.80;;;;;;;;;;5012026;28;20245;-72
2023/03/02 10:44:02;;;;;;;2.92;2.80;;;;;;;;;;5013006;28;20314;-71
2023/03/02 10:46:40;;;;;;;2.88;2.78;;;;;;;;;;5015368;28;20250;-72
2023/03/02 10:49:26;;;;;;;2.08;1.98;;;;;;;;;;5017360;28;20593;-71
2023/03/02 10:51:59;;;;;;;2.17;2.08;;;;;;;;;;5015518;28;20333;-72
2023/03/02 10:54:35;;;;;;;2.33;2.17;;;;;;;;;;5012584;28;20226;-73
2023/03/02 10:57:06;;;;;;;2.88;2.72;;;;;;;;;;5012154;28;20572;-73
2023/03/02 10:59:46;;;;;;;3.13;2.92;;;;;;;;;;5007213;28;20610;-74
2023/03/02 11:02:21;;;;;;;1.77;1.67;;;;;;;;;;5016515;28;20598;-72
2023/03/02 11:04:55;;;;;;;2.85;2.70;;;;;;;;;;5010722;28;20225;-72
2023/03/02 11:07:44;;;;;;;2.13;2.03;;;;;;;;;;5013550;28;20568;-73
2023/03/02 11:10:25;;;;;;;2.35;2.25;;;;;;;;;;5006886;28;20672;-72
2023/03/02 11:12:57;;;;;;;1.55;1.45;;;;;;;;;;5002913;28;20257;-72
2023/03/02 11:15:28;;;;;;;3.83;3.63;;;;;;;;;;5013501;28;20235;-72
2023/03/02 11:18:20;;;;;;;4.25;3.95;;;;;;;;;;5014541;28;20262;-72
2023/03/02 11:20:49;;;;;;;2.28;2.17;;;;;;;;;;5013308;28;20232;-72
2023/03/02 11:23:31;;;;;;;3.38;3.20;;;;;;;;;;5013380;28;20240;-71
2023/03/02 11:26:24;;;;;;;4.35;4.15;;;;;;;;;;5009513;28;20285;-72
2023/03/02 11:29:03;;;;;;;2.97;2.78;;;;;;;;;;5009627;28;20882;-72
2023/03/02 11:31:35;;;;;;;3.13;2.95;;;;;;;;;;4997104;28;20215;-72
2023/03/02 11:34:48;;;;;;;3.70;3.50;;;;;;;;;;5013329;28;20224;-73
2023/03/02 11:40:19;;;;;;;2.03;1.92;;;;;;;;;;4995172;28;20224;-74
2023/03/02 11:43:13;;;;;;;2.42;2.33;;;;;;;;;;5009370;28;20228;-72
2023/03/02 11:45:46;;;;;;;2.35;2.25;;;;;;;;;;5018832;28;20256;-72
2023/03/02 11:48:21;;;;;;;1.92;1.83;;;;;;;;;;5016571;28;20226;-72
2023/03/02 11:50:55;;;;;;;2.95;2.75;;;;;;;;;;5019053;28;20264;-73
2023/03/02 11:53:38;;;;;;;3.92;3.70;;;;;;;;;;5017770;28;20221;-73
2023/03/02 11:56:06;;;;;;;3.33;3.13;;;;;;;;;;5021149;28;20230;-73
2023/03/02 11:58:39;;;;;;;4.50;4.20;;;;;;;;;;5017509;28;20259;-73
2023/03/02 12:01:08;;;;;;;4.30;4.00;;;;;;;;;;5017985;28;20322;-71
2023/03/02 12:03:40;;;;;;;5.25;4.88;;;;;;;;;;5017017;28;20227;-72
2023/03/02 12:06:34;;;;;;;1.42;1.33;;;;;;;;;;5015226;28;20234;-74
2023/03/02 12:09:12;;;;;;;2.72;2.53;;;;;;;;;;5003881;28;20310;-74
2023/03/02 12:11:42;;;;;;;2.22;2.13;;;;;;;;;;4998974;28;20248;-73
2023/03/02 12:14:25;;;;;;;3.65;3.45;;;;;;;;;;4998982;28;20241;-73
2023/03/02 12:17:07;;;;;;;2.65;2.55;;;;;;;;;;4997859;28;20238;-72
2023/03/02 12:19:41;;;;;;;2.60;2.45;;;;;;;;;;5010109;28;20257;-73
2023/03/02 12:22:13;;;;;;;2.00;1.90;;;;;;;;;;5019339;28;20225;-73
2023/03/02 12:24:44;;;;;;;3.30;3.10;;;;;;;;;;5019737;28;20225;-72
2023/03/02 12:27:33;;;;;;;3.72;3.53;;;;;;;;;;5018199;28;20235;-73
2023/03/02 12:30:24;;;;;;;2.47;2.35;;;;;;;;;;5016862;28;20595;-74
2023/03/02 12:33:07;;;;;;;3.28;3.08;;;;;;;;;;5011271;28;20225;-73
2023/03/02 12:36:16;;;;;;;1.95;1.85;;;;;;;;;;5018338;28;20221;-73
2023/03/02 12:39:04;;;;;;;2.75;2.55;;;;;;;;;;5017928;28;20250;-73
2023/03/02 12:41:46;;;;;;;3.65;3.45;;;;;;;;;;5013327;28;20284;-73
2023/03/02 12:44:49;;;;;;;;;;;;;;;;;;;;;
2023/03/02 12:47:28;;;;;;;2.60;2.50;;;;;;;;;;5009011;28;20663;-73
2023/03/02 12:49:57;;;;;;;3.63;3.42;;;;;;;;;;5008151;28;20512;-73
2023/03/02 12:52:32;;;;;;;2.85;2.75;;;;;;;;;;5017498;28;20253;-73
2023/03/02 12:55:08;;;;;;;3.17;2.97;;;;;;;;;;5012892;28;20230;-71
2023/03/02 12:57:39;;;;;;;3.00;2.80;;;;;;;;;;5018877;28;20603;-71
2023/03/02 13:00:23;;;;;;;3.90;3.67;;;;;;;;;;5020685;28;20245;-72
2023/03/02 13:02:54;;;;;;;3.50;3.30;;;;;;;;;;5041444;28;20230;-71
2023/03/02 13:05:36;;;;;;;2.38;2.25;;;;;;;;;;5013708;28;20343;-73
2023/03/02 13:08:36;;;;;;;3.40;3.20;;;;;;;;;;5016815;28;20231;-72
2023/03/02 13:17:34;;;;;;;2.25;2.15;;;;;;;;;;4978753;28;20244;-72
2023/03/02 13:20:17;;;;;;;2.50;2.40;;;;;;;;;;5000942;28;20831;-74
2023/03/02 13:23:14;;;;;;;2.20;2.10;;;;;;;;;;5007993;28;20228;-72
2023/03/02 13:29:00;;;;;;;2.58;2.45;;;;;;;;;;5005830;28;20218;-73
2023/03/02 13:31:53;;;;;;;2.05;1.95;;;;;;;;;;5013586;28;20232;-72
2023/03/02 13:34:30;;;;;;;2.13;2.00;;;;;;;;;;5008635;28;20325;-73
2023/03/02 13:37:07;;;;;;;3.22;3.03;;;;;;;;;;5001894;28;20238;-72
2023/03/02 13:42:48;;;;;;;3.25;3.05;;;;;;;;;;5022363;28;20519;-72
2023/03/02 13:45:41;;;;;;;3.33;3.13;;;;;;;;;;5014994;28;20230;-72
2023/03/02 13:48:26;;;;;;;2.33;2.22;;;;;;;;;;5012421;28;20294;-71
2023/03/02 13:51:24;;;;;;;4.90;4.53;;;;;;;;;;5034145;28;20228;-73
2023/03/02 13:54:01;;;;;;;4.05;3.85;;;;;;;;;;4999913;28;20561;-73
2023/03/02 13:56:42;;;;;;;3.05;2.85;;;;;;;;;;5004926;28;20289;-73
2023/03/02 13:59:18;;;;;;;5.28;4.95;;;;;;;;;;5003213;28;20244;-72
2023/03/02 14:04:56;;;;;;;5.70;5.40;;;;;;;;;;5003576;28;20227;-72
2023/03/02 14:07:30;;;;;;;3.42;3.22;;;;;;;;;;5008962;28;20301;-73
2023/03/02 14:10:01;;;;;;;3.35;3.15;;;;;;;;;;5004005;28;20253;-73
2023/03/02 14:12:47;;;;;;;2.33;2.22;;;;;;;;;;5005027;28;20223;-71
2023/03/02 14:18:44;;;;;;;2.38;2.28;;;;;;;;;;5005746;28;20244;-72
2023/03/02 14:21:51;;;;;;;4.80;4.50;;;;;;;;;;5005322;28;20230;-71
2023/03/02 14:27:54;;;;;;;6.43;6.03;;;;;;;;;;4999916;28;20222;-73
2023/03/02 14:30:45;;;;;;;5.35;4.90;;;;;;;;;;5006910;28;20287;-73
2023/03/02 14:33:52;;;;;;;2.38;2.20;;;;;;;;;;5014936;28;20245;-73
2023/03/02 14:36:34;;;;;;;3.20;3.00;;;;;;;;;;5010765;28;20230;-73
2023/03/02 14:39:08;;;;;;;2.95;2.75;;;;;;;;;;5005178;28;20318;-73
2023/03/02 14:41:43;;;;;;;3.53;3.33;;;;;;;;;;5004284;28;20313;-72
2023/03/02 14:44:17;;;;;;;3.00;2.80;;;;;;;;;;5004973;28;20876;-73
2023/03/02 14:46:48;;;;;;;2.38;2.17;;;;;;;;;;5004597;28;20229;-73
2023/03/02 14:49:16;;;;;;;2.17;2.08;;;;;;;;;;5008246;28;20231;-74
2023/03/02 14:51:57;;;;;;;2.38;2.25;;;;;;;;;;5017659;28;20677;-74
2023/03/02 14:54:26;;;;;;;2.90;2.70;;;;;;;;;;5003664;28;20223;-72
2023/03/02 14:56:58;;;;;;;2.20;2.10;;;;;;;;;;5008037;28;20218;-73
2023/03/02 14:59:34;;;;;;;3.47;3.28;;;;;;;;;;5010777;28;20630;-72
2023/03/02 15:02:07;;;;;;;1.63;1.52;;;;;;;;;;5011888;28;20223;-73
2023/03/02 15:07:35;;;;;;;3.97;3.78;;;;;;;;;;5020462;28;20520;-72
2023/03/02 15:12:49;;;;;;;2.80;2.63;;;;;;;;;;5005424;28;20635;-74
2023/03/02 15:15:33;;;;;;;4.53;4.22;;;;;;;;;;5002453;28;20223;-74
2023/03/02 15:18:16;;;;;;;1.83;1.73;;;;;;;;;;5005660;28;20243;-74
2023/03/02 15:20:59;;;;;;;2.08;1.98;;;;;;;;;;5013500;28;20253;-74
2023/03/02 15:23:27;;;;;;;3.92;3.67;;;;;;;;;;5015017;28;21313;-73
2023/03/02 15:26:18;;;;;;;3.30;3.10;;;;;;;;;;5018988;28;20309;-72
2023/03/02 15:31:40;;;;;;;3.50;3.30;;;;;;;;;;5003583;28;20230;-73
2023/03/02 15:34:37;;;;;;;3.17;2.97;;;;;;;;;;5006424;28;20229;-74
2023/03/02 15:37:08;;;;;;;2.22;2.13;;;;;;;;;;5001758;28;20310;-72
2023/03/02 15:42:31;;;;;;;2.15;2.05;;;;;;;;;;5009117;28;20236;-72
2023/03/02 15:47:41;;;;;;;2.58;2.47;;;;;;;;;;5007187;28;20234;-73
2023/03/02 15:53:22;;;;;;;3.17;2.97;;;;;;;;;;5018196;28;20414;-73
2023/03/02 15:56:01;;;;;;;1.65;1.55;;;;;;;;;;5052736;28;20233;-75
2023/03/02 15:58:30;;;;;;;3.83;3.63;;;;;;;;;;5003105;28;20317;-73
2023/03/02 16:01:00;;;;;;;2.00;1.90;;;;;;;;;;5011200;28;20288;-73
2023/03/02 16:03:44;;;;;;;4.95;4.65;;;;;;;;;;5013562;28;20297;-74
2023/03/02 16:09:14;;;;;;;3.80;3.50;;;;;;;;;;5011962;28;20239;-73
2023/03/02 16:11:41;;;;;;;3.17;2.97;;;;;;;;;;5016389;28;20303;-72
2023/03/02 16:14:12;;;;;;;6.82;6.43;;;;;;;;;;5015883;28;20231;-72
2023/03/02 16:16:41;;;;;;;2.88;2.67;;;;;;;;;;4997648;28;20250;-72